BAW142 EHAM-YSSY
Flight info
| Callsign | BAW142 |
|---|---|
| Flight time | N/A |
| Altitude | 29000 |
| Route | ARNEM L620 HMM DCT NOMKA DCT OMELO DCT ROMIS DCT PITOK DCT BADOR DCT UDROS UM859 KARDE UN644 ROLIN N644 ODILI/N0475F310 N644 LAGAS M747 SULEL N449 DUKAN B449 RANAH L750 BIROS/N0476F330 L750 ZB G201 BINDO L750 MERUN L333 JJP J1 KKJ L759 BBS/N0452F250 G472 BUBKO/N0483F330 M770 DABEN/N0477F350 M770 OBMOG L515 PUT B579 VPL W531 VIH A464 VKL Y507 MAKNA Y511 TOPOR A464 ARAMA/N0473F370 P501 POSOG B469 HLM A585 DOMOM/N0467F390 A585 PD T21 PUGUT/N0466F410 T21 LEC J141 NEWMO H39 VELGI Y105 TARAL Y59 RIVET DCT ODALE |
| Aircraft | B763/H-SDE3FGHIM3RWXY/LB1 |
Departure
| Time | 2026-04-18 05:58 |
|---|---|
| Airport | Amsterdam Airport Schiphol (EHAM) |
Arrival
| Time | N/A |
|---|---|
| Airport | Sydney Kingsford Smith International Airport (YSSY) |
| Time | Latitude | Longitude | Altitude | Speed | Heading |
|---|---|---|---|---|---|
| 2026-04-18 05:45 | 52.31236 | 4.75822 | 11 ft | 0 kts | 269° |
| 2026-04-18 05:49 | 52.31236 | 4.75824 | 11 ft | 2 kts | 269° |
| 2026-04-18 05:49 | 52.31237 | 4.75854 | 11 ft | 3 kts | 269° |
| 2026-04-18 05:49 | 52.31237 | 4.75886 | 12 ft | 3 kts | 290° |
| 2026-04-18 05:49 | 52.31225 | 4.75914 | 15 ft | 3 kts | 335° |
| 2026-04-18 05:50 | 52.31209 | 4.75923 | 14 ft | 0 kts | 15° |
| 2026-04-18 05:50 | 52.31216 | 4.75930 | 14 ft | 2 kts | 26° |
| 2026-04-18 05:50 | 52.31232 | 4.75937 | 15 ft | 6 kts | 11° |
| 2026-04-18 05:50 | 52.31312 | 4.75928 | 15 ft | 18 kts | 356° |
| 2026-04-18 05:51 | 52.31443 | 4.75965 | 26 ft | 13 kts | 50° |
| 2026-04-18 05:51 | 52.31455 | 4.76173 | 26 ft | 26 kts | 86° |
| 2026-04-18 05:51 | 52.31466 | 4.76529 | 22 ft | 33 kts | 86° |
| 2026-04-18 05:51 | 52.31481 | 4.76898 | 21 ft | 32 kts | 86° |
| 2026-04-18 05:52 | 52.31445 | 4.77233 | 16 ft | 29 kts | 127° |
| 2026-04-18 05:52 | 52.31314 | 4.77466 | 19 ft | 24 kts | 136° |
| 2026-04-18 05:52 | 52.31233 | 4.77621 | 27 ft | 13 kts | 154° |
| 2026-04-18 05:52 | 52.31138 | 4.77632 | 26 ft | 29 kts | 181° |
| 2026-04-18 05:53 | 52.30858 | 4.77602 | 26 ft | 41 kts | 187° |
| 2026-04-18 05:53 | 52.30673 | 4.77588 | 26 ft | 15 kts | 188° |
| 2026-04-18 05:53 | 52.30606 | 4.77567 | 26 ft | 0 kts | 195° |
| 2026-04-18 05:54 | 52.30592 | 4.77559 | 26 ft | 3 kts | 197° |
| 2026-04-18 05:54 | 52.30573 | 4.77558 | 25 ft | 0 kts | 175° |
| 2026-04-18 05:55 | 52.30570 | 4.77559 | 26 ft | 3 kts | 173° |
| 2026-04-18 05:55 | 52.30523 | 4.77587 | 27 ft | 11 kts | 156° |
| 2026-04-18 05:55 | 52.30443 | 4.77632 | 28 ft | 11 kts | 178° |
| 2026-04-18 05:55 | 52.30389 | 4.77563 | 27 ft | 10 kts | 234° |
| 2026-04-18 05:56 | 52.30388 | 4.77559 | 26 ft | 0 kts | 235° |
| 2026-04-18 05:57 | 52.30378 | 4.77535 | 31 ft | 9 kts | 237° |
| 2026-04-18 05:57 | 52.30294 | 4.77317 | 25 ft | 50 kts | 237° |
| 2026-04-18 05:57 | 52.29962 | 4.76466 | 27 ft | 131 kts | 238° |
| 2026-04-18 05:58 | 52.29304 | 4.74771 | 60 ft | 220 kts | 237° |
| 2026-04-18 05:58 | 52.28716 | 4.73281 | 692 ft | 244 kts | 237° |
| 2026-04-18 05:58 | 52.27140 | 4.70107 | 2250 ft | 310 kts | 218° |
| 2026-04-18 05:58 | 52.24991 | 4.68549 | 3240 ft | 367 kts | 194° |
| 2026-04-18 05:59 | 52.22287 | 4.68386 | 4562 ft | 408 kts | 176° |
| 2026-04-18 05:59 | 52.19644 | 4.69713 | 6121 ft | 416 kts | 154° |
| 2026-04-18 05:59 | 52.18094 | 4.71383 | 7600 ft | 383 kts | 143° |
| 2026-04-18 05:59 | 52.16359 | 4.74622 | 9216 ft | 376 kts | 120° |
| 2026-04-18 06:00 | 52.15493 | 4.78544 | 11249 ft | 371 kts | 103° |
| 2026-04-18 06:00 | 52.15361 | 4.79965 | 11535 ft | 380 kts | 95° |
| 2026-04-18 06:00 | 52.15883 | 4.85659 | 13068 ft | 392 kts | 71° |
| 2026-04-18 06:00 | 52.17192 | 4.91060 | 14453 ft | 403 kts | 67° |
| 2026-04-18 06:01 | 52.18665 | 4.96672 | 15897 ft | 412 kts | 66° |
| 2026-04-18 06:01 | 52.19790 | 5.00987 | 17755 ft | 419 kts | 70° |
| 2026-04-18 06:01 | 52.20657 | 5.05583 | 19273 ft | 430 kts | 75° |
| 2026-04-18 06:01 | 52.21539 | 5.10323 | 20702 ft | 443 kts | 73° |
| 2026-04-18 06:02 | 52.22423 | 5.14996 | 22075 ft | 454 kts | 74° |
| 2026-04-18 06:02 | 52.23344 | 5.20005 | 23493 ft | 467 kts | 76° |
| 2026-04-18 06:02 | 52.23891 | 5.25268 | 24711 ft | 475 kts | 86° |
| 2026-04-18 06:02 | 52.24137 | 5.30681 | 25944 ft | 483 kts | 92° |
| 2026-04-18 06:03 | 52.23898 | 5.36172 | 27173 ft | 488 kts | 100° |
| 2026-04-18 06:03 | 52.23601 | 5.41733 | 28291 ft | 493 kts | 98° |
| 2026-04-18 06:03 | 52.23331 | 5.47158 | 28793 ft | 501 kts | 101° |
| 2026-04-18 06:03 | 52.22680 | 5.52774 | 29028 ft | 505 kts | 108° |
| 2026-04-18 06:04 | 52.21759 | 5.58290 | 29104 ft | 501 kts | 115° |
| 2026-04-18 06:04 | 52.19626 | 5.66973 | 29162 ft | 495 kts | 116° |
| 2026-04-18 06:05 | 52.16676 | 5.79073 | 29178 ft | 494 kts | 117° |
| 2026-04-18 06:05 | 52.14123 | 5.89496 | 29181 ft | 494 kts | 117° |
| 2026-04-18 06:06 | 52.11574 | 5.99858 | 29171 ft | 492 kts | 116° |
| 2026-04-18 06:06 | 52.09252 | 6.10375 | 29172 ft | 498 kts | 108° |
| 2026-04-18 06:07 | 52.07985 | 6.19540 | 29183 ft | 498 kts | 107° |
| 2026-04-18 06:07 | 52.06186 | 6.32310 | 29176 ft | 498 kts | 107° |
| 2026-04-18 06:08 | 52.04625 | 6.43285 | 29168 ft | 497 kts | 106° |
| 2026-04-18 06:08 | 52.03088 | 6.54044 | 29167 ft | 497 kts | 106° |
| 2026-04-18 06:09 | 52.01781 | 6.63134 | 29173 ft | 498 kts | 106° |
| 2026-04-18 06:09 | 51.99928 | 6.75916 | 29173 ft | 496 kts | 107° |
| 2026-04-18 06:10 | 51.98333 | 6.86835 | 29155 ft | 497 kts | 106° |
| 2026-04-18 06:10 | 51.96738 | 6.97682 | 29169 ft | 497 kts | 106° |
| 2026-04-18 06:11 | 51.95129 | 7.08551 | 29412 ft | 488 kts | 106° |
| 2026-04-18 06:11 | 51.94344 | 7.13822 | 30257 ft | 473 kts | 107° |
| 2026-04-18 06:11 | 51.93580 | 7.18935 | 31246 ft | 460 kts | 107° |
| 2026-04-18 06:11 | 51.92833 | 7.23919 | 32424 ft | 450 kts | 107° |
| 2026-04-18 06:12 | 51.92099 | 7.28799 | 33642 ft | 442 kts | 107° |
| 2026-04-18 06:12 | 51.91380 | 7.33572 | 34490 ft | 431 kts | 107° |
| 2026-04-18 06:12 | 51.90661 | 7.38286 | 34803 ft | 432 kts | 107° |
| 2026-04-18 06:12 | 51.89939 | 7.43064 | 35008 ft | 440 kts | 107° |
| 2026-04-18 06:13 | 51.89205 | 7.47907 | 35113 ft | 446 kts | 107° |
| 2026-04-18 06:13 | 51.87711 | 7.57687 | 35159 ft | 445 kts | 107° |
| 2026-04-18 06:14 | 51.86281 | 7.66806 | 35170 ft | 439 kts | 109° |
| 2026-04-18 06:14 | 51.84959 | 7.76248 | 35191 ft | 442 kts | 105° |
| 2026-04-18 06:14 | 51.84302 | 7.81150 | 35203 ft | 454 kts | 105° |
| 2026-04-18 06:15 | 51.83609 | 7.86253 | 35231 ft | 473 kts | 104° |
| 2026-04-18 06:15 | 51.82903 | 7.91560 | 35234 ft | 493 kts | 104° |
| 2026-04-18 06:15 | 51.82154 | 7.97088 | 35228 ft | 513 kts | 104° |
| 2026-04-18 06:16 | 51.80615 | 8.08392 | 35169 ft | 513 kts | 104° |
| 2026-04-18 06:16 | 51.79339 | 8.17675 | 35153 ft | 506 kts | 104° |
| 2026-04-18 06:17 | 51.77802 | 8.28790 | 35159 ft | 508 kts | 104° |
| 2026-04-18 06:17 | 51.76255 | 8.39923 | 35167 ft | 508 kts | 104° |
| 2026-04-18 06:18 | 51.74692 | 8.51041 | 35172 ft | 507 kts | 104° |
| 2026-04-18 06:18 | 51.73126 | 8.62133 | 35173 ft | 507 kts | 104° |
| 2026-04-18 06:19 | 51.71557 | 8.73151 | 35184 ft | 507 kts | 104° |
| 2026-04-18 06:19 | 51.69970 | 8.84214 | 35182 ft | 506 kts | 104° |
| 2026-04-18 06:20 | 51.68374 | 8.95270 | 35177 ft | 506 kts | 104° |
| 2026-04-18 06:20 | 51.66763 | 9.06339 | 35170 ft | 506 kts | 104° |
| 2026-04-18 06:21 | 51.65145 | 9.17386 | 35180 ft | 507 kts | 104° |
| 2026-04-18 06:21 | 51.63523 | 9.28369 | 35175 ft | 506 kts | 104° |
| 2026-04-18 06:22 | 51.61887 | 9.39389 | 35187 ft | 506 kts | 104° |
| 2026-04-18 06:22 | 51.60238 | 9.50399 | 35180 ft | 506 kts | 104° |
| 2026-04-18 06:23 | 51.58578 | 9.61425 | 35184 ft | 507 kts | 105° |
| 2026-04-18 06:23 | 51.56905 | 9.72441 | 35177 ft | 506 kts | 104° |
| 2026-04-18 06:24 | 51.55225 | 9.83447 | 35184 ft | 507 kts | 105° |
| 2026-04-18 06:24 | 51.53542 | 9.94381 | 35183 ft | 507 kts | 105° |
| 2026-04-18 06:25 | 51.51855 | 10.05275 | 35181 ft | 507 kts | 105° |
| 2026-04-18 06:25 | 51.50162 | 10.16128 | 35172 ft | 507 kts | 105° |
| 2026-04-18 06:26 | 51.48454 | 10.27030 | 35179 ft | 510 kts | 105° |
| 2026-04-18 06:26 | 51.46706 | 10.38075 | 35174 ft | 509 kts | 105° |
| 2026-04-18 06:27 | 51.44952 | 10.49002 | 35562 ft | 500 kts | 105° |
| 2026-04-18 06:27 | 51.44122 | 10.54367 | 35908 ft | 502 kts | 104° |
| 2026-04-18 06:27 | 51.43261 | 10.59830 | 36098 ft | 507 kts | 105° |
| 2026-04-18 06:27 | 51.42384 | 10.65336 | 36308 ft | 510 kts | 105° |
| 2026-04-18 06:28 | 51.41510 | 10.70850 | 36501 ft | 510 kts | 105° |
| 2026-04-18 06:28 | 51.40635 | 10.76334 | 36703 ft | 508 kts | 105° |
| 2026-04-18 06:28 | 51.39758 | 10.81818 | 36908 ft | 506 kts | 105° |
| 2026-04-18 06:28 | 51.38882 | 10.87267 | 37061 ft | 506 kts | 105° |
| 2026-04-18 06:29 | 51.37999 | 10.92750 | 37130 ft | 507 kts | 105° |
| 2026-04-18 06:29 | 51.36240 | 11.03623 | 37165 ft | 507 kts | 105° |